Colora, MD

8:15 AM EDT on October 01, 2014 (GMT -0400)
Martin State | Change Station
CLOSE
Current Station
Airport
Location: Baltimore Martin,
Elevation: 23 ft
Nearby Weather Stations

Elev 23 ft 39.32 °N, 76.41 °W | Updated 3 hours ago

Mostly Cloudy
Mostly Cloudy
63 °F
Feels Like 63 °F
N
0
Wind Variable Wind from North

Today
High -- | Low -- °F
--% Chance of Precip.
Yesterday
High -- | Low -- °F
Precip. -- in
7:00 AM 6:46 PM
Waxing Crescent, 47% visible
Pressure 29.98 in
Visibility 10.0 miles
Clouds Clear
Dew Point 63 °F
Humidity 100%
Rainfall 0.00 in
Snow Depth Not available.
UV 0 out of 12
Pollen 3.10 out of 12
Air Quality Not available.
Flu Activity Not available.
METAR KMTN 010915Z AUTO 00000KT 10SM CLR 17/17 A2998 RMK AO2

More Conditions Fewer Conditions

Pressure 29.98 in
Visibility 10.0 miles
Clouds Clear
Dew Point 63 °F
Humidity 100%
Rainfall 0.00 in
Snow Depth Not available.
UV 0 out of 12
Pollen 3.10 out of 12
Air Quality Not available.
Flu Activity Not available.
METAR KMTN 010915Z AUTO 00000KT 10SM CLR 17/17 A2998 RMK AO2

More Conditions Fewer Conditions

10-Day Weather Forecast

Almanac

Astronomy

Oct. 01, 2014 Rise Set
Actual Time 7:00 AM EDT 6:46 PM EDT
Civil Twilight 6:33 AM EDT 7:13 PM EDT
Nautical Twilight 6:02 AM EDT 7:44 PM EDT
Astronomical Twilight 5:30 AM EDT 8:16 PM EDT
Moon 1:58 PM EDT No Moon Set
Length of Visible Light 12h 40m
Length of Day
11h 46m
Tomorrow will be 2m 35s shorter.
Waxing Crescent, 47% of the Moon is Illuminated
Today
Waxing Crescent
Oct 1
First Quarter
Oct 8
Full
Oct 15
Last Quarter
Oct 23
New

Today's Extremes

State Highs State Lows

Community

WunderPhotos

Upload Photos

1,757,914 photos uploaded!

Nearby

Snow Depth

Station Depth Elevation
No new snow has been reported.

Earthquake Activity

City Distance Mag. Time & Date
No recent earthquake activity has been reported nearby.
Minimum magnitude displayed is 2.5.

Coastal Water Temperatures

Place Temperature
Tolchester Beach, MD 72.0 °F
Chesapeake City, MD 71.1 °F
Baltimore, MD 73.9 °F

Nearby Weather Stations